Time;durP1;ratioP1;P1;durP2;ratioP2;P2;SDS_P1;SDS_P2;PMS_P1;PMS_P2;Temp;Humidity;BMP_temperature;BMP_pressure;BME280_temperature;BME280_humidity;BME280_pressure;Samples;Min_cycle;Max_cycle;Signal;HPM_P1;HPM_P2
2022/07/17 00:00:44;;;;;;;25.02;5.78;;;;;;;;;;4915637;29;20028;-58
2022/07/17 00:03:11;;;;;;;29.63;6.35;;;;;;;;;;4913211;29;20058;-58
2022/07/17 00:05:38;;;;;;;29.98;6.72;;;;;;;;;;4921954;29;20035;-56
2022/07/17 00:08:06;;;;;;;30.75;6.07;;;;;;;;;;4931453;29;20059;-55
2022/07/17 00:10:41;;;;;;;33.83;7.55;;;;;;;;;;4931411;29;20032;-55
2022/07/17 00:13:08;;;;;;;34.42;6.72;;;;;;;;;;4930810;29;20571;-53
2022/07/17 00:15:35;;;;;;;27.77;6.25;;;;;;;;;;4931252;29;20145;-54
2022/07/17 00:18:03;;;;;;;26.67;6.00;;;;;;;;;;4931639;29;20135;-54
2022/07/17 00:20:30;;;;;;;29.35;6.07;;;;;;;;;;4932110;29;20035;-56
2022/07/17 00:22:58;;;;;;;81.18;8.45;;;;;;;;;;4930751;29;20042;-54
2022/07/17 00:25:25;;;;;;;104.97;11.68;;;;;;;;;;4924721;29;20032;-56
2022/07/17 00:27:52;;;;;;;75.20;10.55;;;;;;;;;;4926254;29;20087;-55
2022/07/17 00:30:19;;;;;;;53.60;7.10;;;;;;;;;;4915725;29;20698;-52
2022/07/17 00:32:46;;;;;;;36.38;6.93;;;;;;;;;;4912691;29;20490;-55
2022/07/17 00:35:13;;;;;;;54.20;7.63;;;;;;;;;;4914002;29;20086;-57
2022/07/17 00:37:41;;;;;;;48.60;7.85;;;;;;;;;;4926858;29;20075;-51
2022/07/17 00:40:09;;;;;;;43.65;7.22;;;;;;;;;;4933083;29;20038;-54
2022/07/17 00:42:36;;;;;;;39.38;6.45;;;;;;;;;;4932561;29;20082;-56
2022/07/17 00:45:03;;;;;;;34.83;6.75;;;;;;;;;;4934477;29;20048;-54
2022/07/17 00:47:30;;;;;;;41.13;6.75;;;;;;;;;;4936993;29;20051;-51
2022/07/17 00:49:57;;;;;;;34.50;5.93;;;;;;;;;;4936466;29;20039;-51
2022/07/17 00:52:24;;;;;;;39.60;7.25;;;;;;;;;;4936126;29;20048;-55
2022/07/17 00:54:52;;;;;;;36.40;6.18;;;;;;;;;;4936000;29;20024;-51
2022/07/17 00:57:20;;;;;;;27.42;6.15;;;;;;;;;;4936707;29;20055;-55
2022/07/17 00:59:46;;;;;;;30.90;6.43;;;;;;;;;;4936354;29;20040;-55
2022/07/17 01:02:14;;;;;;;23.58;5.30;;;;;;;;;;4918736;29;20383;-54
2022/07/17 01:04:41;;;;;;;20.88;5.75;;;;;;;;;;4936233;29;20721;-55
2022/07/17 01:07:08;;;;;;;32.30;5.47;;;;;;;;;;4935389;29;20122;-54
2022/07/17 01:09:35;;;;;;;27.63;5.80;;;;;;;;;;4935881;29;20091;-54
2022/07/17 01:12:02;;;;;;;22.38;4.93;;;;;;;;;;4935875;29;20167;-50
2022/07/17 01:14:29;;;;;;;26.17;5.25;;;;;;;;;;4935988;29;20549;-54
2022/07/17 01:16:56;;;;;;;20.85;5.07;;;;;;;;;;4936167;29;20031;-54
2022/07/17 01:19:23;;;;;;;19.77;4.40;;;;;;;;;;4935688;29;20103;-56
2022/07/17 01:21:51;;;;;;;14.00;4.43;;;;;;;;;;4934403;29;20086;-56
2022/07/17 01:24:19;;;;;;;22.27;4.43;;;;;;;;;;4936147;29;20024;-53
2022/07/17 01:26:47;;;;;;;23.92;4.10;;;;;;;;;;4935862;29;20418;-56
2022/07/17 01:29:15;;;;;;;16.55;4.25;;;;;;;;;;4935012;29;20099;-54
2022/07/17 01:31:42;;;;;;;15.93;3.72;;;;;;;;;;4935804;29;20552;-55
2022/07/17 01:34:12;;;;;;;15.88;4.20;;;;;;;;;;4937492;29;20024;-54
2022/07/17 01:36:39;;;;;;;19.30;4.63;;;;;;;;;;4936251;29;20031;-53
2022/07/17 01:39:06;;;;;;;15.60;4.55;;;;;;;;;;4936576;29;20490;-57
2022/07/17 01:41:34;;;;;;;16.83;4.68;;;;;;;;;;4935855;29;20079;-56
2022/07/17 01:44:03;;;;;;;15.27;4.25;;;;;;;;;;4935605;29;20501;-56
2022/07/17 01:46:30;;;;;;;18.15;3.95;;;;;;;;;;4936287;29;20104;-56
2022/07/17 01:48:57;;;;;;;10.63;3.50;;;;;;;;;;4935835;29;20072;-54
2022/07/17 01:51:24;;;;;;;13.18;4.00;;;;;;;;;;4935462;29;20036;-55
2022/07/17 01:53:51;;;;;;;9.88;3.60;;;;;;;;;;4936256;29;20024;-55
2022/07/17 01:56:18;;;;;;;13.88;3.50;;;;;;;;;;4935811;29;20031;-56
2022/07/17 01:58:45;;;;;;;16.08;4.25;;;;;;;;;;4936160;29;20024;-54
2022/07/17 02:01:12;;;;;;;10.50;3.33;;;;;;;;;;4918538;29;20577;-54
2022/07/17 02:03:39;;;;;;;14.32;3.45;;;;;;;;;;4935736;29;20116;-56
2022/07/17 02:06:05;;;;;;;13.35;3.42;;;;;;;;;;4935769;29;20027;-56
2022/07/17 02:08:32;;;;;;;8.73;3.20;;;;;;;;;;4934415;29;20036;-55
2022/07/17 02:10:59;;;;;;;9.27;2.92;;;;;;;;;;4935057;29;20044;-53
2022/07/17 02:13:26;;;;;;;10.15;2.60;;;;;;;;;;4935495;29;20475;-56
2022/07/17 02:15:53;;;;;;;14.25;3.60;;;;;;;;;;4935807;29;20042;-55
2022/07/17 02:18:20;;;;;;;8.82;3.38;;;;;;;;;;4935436;29;20032;-54
2022/07/17 02:20:49;;;;;;;9.82;2.67;;;;;;;;;;4935204;29;20071;-54
2022/07/17 02:23:16;;;;;;;9.32;2.92;;;;;;;;;;4935254;29;20031;-55
2022/07/17 02:25:43;;;;;;;8.45;2.60;;;;;;;;;;4935201;29;20035;-56
2022/07/17 02:28:10;;;;;;;10.25;2.72;;;;;;;;;;4935128;29;20035;-56
2022/07/17 02:30:37;;;;;;;9.88;2.80;;;;;;;;;;4918350;29;20037;-52
2022/07/17 02:33:04;;;;;;;7.40;2.53;;;;;;;;;;4935232;29;20035;-57
2022/07/17 02:35:35;;;;;;;7.32;2.45;;;;;;;;;;4934545;29;20060;-54
2022/07/17 02:38:02;;;;;;;9.32;2.80;;;;;;;;;;4918793;29;20026;-50
2022/07/17 02:40:29;;;;;;;6.30;2.05;;;;;;;;;;4935025;29;20054;-51
2022/07/17 02:42:56;;;;;;;7.32;2.28;;;;;;;;;;4934439;29;20083;-52
2022/07/17 02:45:26;;;;;;;10.20;2.63;;;;;;;;;;4934788;29;20047;-51
2022/07/17 02:47:56;;;;;;;6.03;2.50;;;;;;;;;;4935432;29;20043;-54
2022/07/17 02:50:23;;;;;;;8.48;2.20;;;;;;;;;;4934044;29;20044;-50
2022/07/17 02:52:51;;;;;;;5.60;2.05;;;;;;;;;;4935109;29;20111;-50
2022/07/17 02:55:18;;;;;;;7.85;2.22;;;;;;;;;;4933560;29;20084;-48
2022/07/17 02:57:47;;;;;;;7.72;2.70;;;;;;;;;;4934756;29;20118;-54
2022/07/17 03:00:15;;;;;;;7.28;2.10;;;;;;;;;;4935081;29;20035;-52
2022/07/17 03:02:43;;;;;;;5.90;2.30;;;;;;;;;;4934374;29;20023;-51
2022/07/17 03:05:10;;;;;;;5.18;1.88;;;;;;;;;;4934771;29;20478;-52
2022/07/17 03:07:37;;;;;;;5.80;1.83;;;;;;;;;;4934379;29;20027;-53
2022/07/17 03:10:04;;;;;;;6.85;2.95;;;;;;;;;;4936099;29;20066;-53
2022/07/17 03:12:31;;;;;;;9.82;2.08;;;;;;;;;;4935016;29;20036;-50
2022/07/17 03:14:58;;;;;;;5.47;2.10;;;;;;;;;;4934240;29;20490;-50
2022/07/17 03:17:25;;;;;;;4.22;1.95;;;;;;;;;;4934726;29;20059;-53
2022/07/17 03:19:52;;;;;;;7.18;2.10;;;;;;;;;;4934373;29;20059;-49
2022/07/17 03:22:19;;;;;;;6.72;2.25;;;;;;;;;;4934180;29;20028;-51
2022/07/17 03:24:46;;;;;;;6.32;1.98;;;;;;;;;;4934277;29;20426;-49
2022/07/17 03:27:13;;;;;;;6.57;2.10;;;;;;;;;;4934194;29;20548;-54
2022/07/17 03:29:40;;;;;;;5.57;2.15;;;;;;;;;;4934138;29;20098;-51
2022/07/17 03:32:07;;;;;;;5.18;1.85;;;;;;;;;;4931992;29;20036;-54
2022/07/17 03:34:34;;;;;;;5.57;1.80;;;;;;;;;;4932845;29;20028;-54
2022/07/17 03:37:01;;;;;;;5.90;1.92;;;;;;;;;;4928614;29;20036;-54
2022/07/17 03:39:28;;;;;;;5.38;2.08;;;;;;;;;;4932243;29;20043;-54
2022/07/17 03:41:55;;;;;;;3.47;1.60;;;;;;;;;;4933044;29;20035;-52
2022/07/17 03:44:22;;;;;;;4.43;1.70;;;;;;;;;;4932073;29;20090;-54
2022/07/17 03:46:49;;;;;;;5.18;1.50;;;;;;;;;;4934302;29;20024;-52
2022/07/17 03:49:16;;;;;;;4.55;2.00;;;;;;;;;;4932424;29;20043;-48
2022/07/17 03:51:43;;;;;;;3.53;1.67;;;;;;;;;;4932400;29;20093;-48
2022/07/17 03:54:10;;;;;;;4.05;1.55;;;;;;;;;;4931579;29;20038;-53
2022/07/17 03:56:37;;;;;;;5.38;1.67;;;;;;;;;;4933514;29;20047;-53
2022/07/17 03:59:04;;;;;;;5.38;1.88;;;;;;;;;;4933858;29;20055;-53
2022/07/17 04:01:32;;;;;;;5.15;1.50;;;;;;;;;;4932502;29;20040;-53
2022/07/17 04:03:59;;;;;;;3.38;1.52;;;;;;;;;;4933484;29;20035;-53
2022/07/17 04:06:26;;;;;;;8.27;1.65;;;;;;;;;;4916540;29;20505;-54
2022/07/17 04:08:53;;;;;;;4.43;1.58;;;;;;;;;;4933257;29;20167;-54
2022/07/17 04:11:20;;;;;;;4.13;1.55;;;;;;;;;;4933552;29;20044;-54
2022/07/17 04:13:47;;;;;;;6.80;1.83;;;;;;;;;;4933679;29;20398;-54
2022/07/17 04:16:14;;;;;;;4.65;1.85;;;;;;;;;;4932190;29;20490;-47
2022/07/17 04:18:41;;;;;;;2.78;1.55;;;;;;;;;;4934264;29;20485;-53
2022/07/17 04:21:09;;;;;;;3.30;1.42;;;;;;;;;;4937484;29;20458;-54
2022/07/17 04:23:37;;;;;;;2.78;1.33;;;;;;;;;;4937136;29;20401;-53
2022/07/17 04:26:06;;;;;;;2.83;1.48;;;;;;;;;;4936095;29;20118;-49
2022/07/17 04:28:34;;;;;;;4.93;1.65;;;;;;;;;;4937063;29;20118;-51
2022/07/17 04:31:01;;;;;;;2.65;1.08;;;;;;;;;;4937231;29;20494;-51
2022/07/17 04:33:28;;;;;;;8.07;1.42;;;;;;;;;;4937041;29;20032;-51
2022/07/17 04:35:55;;;;;;;6.45;1.40;;;;;;;;;;4936784;29;20537;-53
2022/07/17 04:38:22;;;;;;;8.63;1.60;;;;;;;;;;4934026;29;20044;-53
2022/07/17 04:40:49;;;;;;;4.85;1.33;;;;;;;;;;4932886;29;20028;-49
2022/07/17 04:43:16;;;;;;;3.80;1.40;;;;;;;;;;4935987;29;20059;-54
2022/07/17 04:45:43;;;;;;;7.78;1.60;;;;;;;;;;4934561;29;20031;-51
2022/07/17 04:48:10;;;;;;;5.55;1.10;;;;;;;;;;4934514;29;20023;-56
2022/07/17 04:50:38;;;;;;;5.40;1.15;;;;;;;;;;4934348;29;20028;-51
2022/07/17 04:53:04;;;;;;;6.57;1.45;;;;;;;;;;4917795;29;20437;-50
2022/07/17 04:55:31;;;;;;;2.95;1.05;;;;;;;;;;4929092;29;20035;-46
2022/07/17 04:57:58;;;;;;;7.55;1.20;;;;;;;;;;4924303;29;20039;-48
2022/07/17 05:00:26;;;;;;;5.70;1.10;;;;;;;;;;4932662;29;20028;-53
2022/07/17 05:02:53;;;;;;;2.78;1.05;;;;;;;;;;4936097;29;20054;-48
2022/07/17 05:05:21;;;;;;;10.80;2.45;;;;;;;;;;4936468;29;20579;-48
2022/07/17 05:07:48;;;;;;;3.80;1.25;;;;;;;;;;4937029;29;20031;-48
2022/07/17 05:10:15;;;;;;;6.00;1.30;;;;;;;;;;4936855;29;20044;-51
2022/07/17 05:12:42;;;;;;;3.80;1.33;;;;;;;;;;4936676;29;20557;-51
2022/07/17 05:15:09;;;;;;;5.70;1.15;;;;;;;;;;4936986;29;20038;-54
2022/07/17 05:17:36;;;;;;;6.32;1.20;;;;;;;;;;4936859;29;20030;-54
2022/07/17 05:20:03;;;;;;;5.15;1.25;;;;;;;;;;4936998;29;20036;-54
2022/07/17 05:22:30;;;;;;;3.38;1.15;;;;;;;;;;4936965;29;20118;-50
2022/07/17 05:24:57;;;;;;;2.92;1.25;;;;;;;;;;4936919;29;20035;-51
2022/07/17 05:27:25;;;;;;;5.20;1.13;;;;;;;;;;4936433;29;20397;-52
2022/07/17 05:29:52;;;;;;;4.75;1.10;;;;;;;;;;4936468;29;20398;-54
2022/07/17 05:32:19;;;;;;;7.00;1.42;;;;;;;;;;4936843;29;20040;-51
2022/07/17 05:34:46;;;;;;;3.20;0.93;;;;;;;;;;4937372;29;20098;-50
2022/07/17 05:37:13;;;;;;;2.95;1.20;;;;;;;;;;4936297;29;20482;-48
2022/07/17 05:39:40;;;;;;;4.53;1.25;;;;;;;;;;4937346;29;20155;-50
2022/07/17 05:42:07;;;;;;;2.78;1.05;;;;;;;;;;4936779;29;20047;-54
2022/07/17 05:44:34;;;;;;;2.75;1.00;;;;;;;;;;4936280;29;20399;-51
2022/07/17 05:47:01;;;;;;;3.33;1.10;;;;;;;;;;4937019;29;20371;-51
2022/07/17 05:49:28;;;;;;;1.70;0.88;;;;;;;;;;4935849;29;20052;-52
2022/07/17 05:51:55;;;;;;;5.80;1.08;;;;;;;;;;4936945;29;20067;-54
2022/07/17 05:54:22;;;;;;;6.60;1.13;;;;;;;;;;4936509;29;20422;-51
2022/07/17 05:56:49;;;;;;;3.65;1.23;;;;;;;;;;4936628;29;20028;-54
2022/07/17 05:59:16;;;;;;;3.05;0.85;;;;;;;;;;4936959;29;20035;-53
2022/07/17 06:01:44;;;;;;;2.35;1.10;;;;;;;;;;4935895;29;20481;-51
2022/07/17 06:04:11;;;;;;;3.63;1.10;;;;;;;;;;4936448;29;20375;-50
2022/07/17 06:06:38;;;;;;;4.65;1.17;;;;;;;;;;4936654;29;20039;-51
2022/07/17 06:09:05;;;;;;;3.70;1.38;;;;;;;;;;4936435;29;20028;-53
2022/07/17 06:11:32;;;;;;;2.03;0.80;;;;;;;;;;4934530;29;20118;-51
2022/07/17 06:13:59;;;;;;;2.63;0.93;;;;;;;;;;4936657;29;20059;-48
2022/07/17 06:16:26;;;;;;;3.83;1.10;;;;;;;;;;4936132;29;20027;-50
2022/07/17 06:18:53;;;;;;;3.50;0.93;;;;;;;;;;4936346;29;20489;-54
2022/07/17 06:21:20;;;;;;;3.10;0.95;;;;;;;;;;4935692;29;20040;-53
2022/07/17 06:23:47;;;;;;;2.83;1.00;;;;;;;;;;4936009;29;20469;-53
2022/07/17 06:26:14;;;;;;;4.70;1.08;;;;;;;;;;4936193;29;20027;-53
2022/07/17 06:28:41;;;;;;;4.47;1.10;;;;;;;;;;4935622;29;20043;-48
2022/07/17 06:31:08;;;;;;;1.98;0.80;;;;;;;;;;4936301;29;20118;-54
2022/07/17 06:33:36;;;;;;;3.33;0.95;;;;;;;;;;4935547;29;20040;-53
2022/07/17 06:36:04;;;;;;;5.60;1.05;;;;;;;;;;4936006;29;20028;-53
2022/07/17 06:38:31;;;;;;;1.90;0.90;;;;;;;;;;4936226;29;20602;-48
2022/07/17 06:40:58;;;;;;;3.28;1.00;;;;;;;;;;4935058;29;20052;-53
2022/07/17 06:43:25;;;;;;;2.30;1.02;;;;;;;;;;4935709;29;20028;-51
2022/07/17 06:45:53;;;;;;;1.65;0.88;;;;;;;;;;4935725;29;20064;-51
2022/07/17 06:48:21;;;;;;;3.05;1.10;;;;;;;;;;4918248;29;20040;-54
2022/07/17 06:50:48;;;;;;;3.95;1.15;;;;;;;;;;4935682;29;20498;-53
2022/07/17 06:53:15;;;;;;;2.13;0.90;;;;;;;;;;4934951;29;20030;-54
2022/07/17 06:55:42;;;;;;;3.15;0.93;;;;;;;;;;4935543;29;20038;-50
2022/07/17 06:58:09;;;;;;;1.13;0.70;;;;;;;;;;4934295;29;20039;-51
2022/07/17 07:00:36;;;;;;;1.55;1.10;;;;;;;;;;4935550;29;20039;-52
2022/07/17 07:03:03;;;;;;;2.00;1.10;;;;;;;;;;4935679;29;20019;-54
2022/07/17 07:05:30;;;;;;;2.30;1.00;;;;;;;;;;4934744;29;20032;-54
2022/07/17 07:07:57;;;;;;;1.40;0.75;;;;;;;;;;4935601;29;20562;-53
2022/07/17 07:10:24;;;;;;;1.88;0.70;;;;;;;;;;4935150;29;20027;-52
2022/07/17 07:12:51;;;;;;;2.15;0.80;;;;;;;;;;4935047;29;20032;-51
2022/07/17 07:15:18;;;;;;;0.90;0.60;;;;;;;;;;4934828;29;20039;-51
2022/07/17 07:17:46;;;;;;;1.98;0.90;;;;;;;;;;4935387;29;20079;-51
2022/07/17 07:20:13;;;;;;;2.35;0.77;;;;;;;;;;4935094;29;20056;-53
2022/07/17 07:22:40;;;;;;;0.88;0.57;;;;;;;;;;4934524;29;20023;-52
2022/07/17 07:25:07;;;;;;;1.63;0.73;;;;;;;;;;4935228;29;20055;-54
2022/07/17 07:27:34;;;;;;;2.83;0.75;;;;;;;;;;4934670;29;20036;-53
2022/07/17 07:30:01;;;;;;;0.98;0.43;;;;;;;;;;4934801;29;20032;-50
2022/07/17 07:32:28;;;;;;;1.23;0.70;;;;;;;;;;4935135;29;20031;-51
2022/07/17 07:34:55;;;;;;;1.63;0.70;;;;;;;;;;4934464;29;20032;-51
2022/07/17 07:37:22;;;;;;;1.45;0.70;;;;;;;;;;4935281;29;20028;-51
2022/07/17 07:39:49;;;;;;;1.00;0.68;;;;;;;;;;4934928;29;20062;-54
2022/07/17 07:42:16;;;;;;;2.38;0.75;;;;;;;;;;4934498;29;20036;-49
2022/07/17 07:44:43;;;;;;;1.13;0.60;;;;;;;;;;4934379;29;20763;-52
2022/07/17 07:47:10;;;;;;;1.30;0.60;;;;;;;;;;4934416;29;20023;-53
2022/07/17 07:49:37;;;;;;;0.70;0.43;;;;;;;;;;4934694;29;20031;-51
2022/07/17 07:52:04;;;;;;;1.23;0.68;;;;;;;;;;4934301;29;20506;-53
2022/07/17 07:54:32;;;;;;;1.38;0.73;;;;;;;;;;4935058;29;20030;-51
2022/07/17 07:56:59;;;;;;;1.88;0.65;;;;;;;;;;4934121;29;20061;-52
2022/07/17 07:59:26;;;;;;;2.17;0.73;;;;;;;;;;4934752;29;20043;-49
2022/07/17 08:01:53;;;;;;;1.13;0.50;;;;;;;;;;4934425;29;20056;-51
2022/07/17 08:04:20;;;;;;;0.50;0.40;;;;;;;;;;4935052;29;20071;-50
2022/07/17 08:06:47;;;;;;;1.02;0.50;;;;;;;;;;4934045;29;20115;-52
2022/07/17 08:09:14;;;;;;;2.25;0.60;;;;;;;;;;4934837;29;20114;-51
2022/07/17 08:11:41;;;;;;;0.82;0.55;;;;;;;;;;4934585;29;20046;-51
2022/07/17 08:14:08;;;;;;;0.80;0.50;;;;;;;;;;4934484;29;20038;-52
2022/07/17 08:16:35;;;;;;;1.23;0.50;;;;;;;;;;4934050;29;20043;-54
2022/07/17 08:19:02;;;;;;;1.42;0.60;;;;;;;;;;4934734;29;20529;-48
2022/07/17 08:21:29;;;;;;;0.73;0.40;;;;;;;;;;4934313;29;20051;-53
2022/07/17 08:23:56;;;;;;;1.08;0.60;;;;;;;;;;4934514;29;20024;-49
2022/07/17 08:26:23;;;;;;;0.90;0.43;;;;;;;;;;4934912;29;20024;-50
2022/07/17 08:28:50;;;;;;;2.92;0.40;;;;;;;;;;4932562;29;20039;-53
2022/07/17 08:31:17;;;;;;;1.77;0.50;;;;;;;;;;4934650;29;20051;-51
2022/07/17 08:33:44;;;;;;;1.08;0.52;;;;;;;;;;4917298;29;20040;-50
2022/07/17 08:36:11;;;;;;;1.38;0.40;;;;;;;;;;4934396;29;20026;-53
2022/07/17 08:38:38;;;;;;;1.05;0.52;;;;;;;;;;4934254;29;20027;-53
2022/07/17 08:41:05;;;;;;;0.55;0.40;;;;;;;;;;4934130;29;20520;-52
2022/07/17 08:43:32;;;;;;;1.25;0.45;;;;;;;;;;4934282;29;20062;-54
2022/07/17 08:45:59;;;;;;;0.60;0.50;;;;;;;;;;4934243;29;20037;-48
2022/07/17 08:48:27;;;;;;;0.88;0.50;;;;;;;;;;4934138;29;20034;-49
2022/07/17 08:50:55;;;;;;;1.02;0.45;;;;;;;;;;4934562;29;20103;-54
2022/07/17 08:53:23;;;;;;;0.73;0.40;;;;;;;;;;4933865;29;20067;-51
2022/07/17 08:55:50;;;;;;;1.17;0.38;;;;;;;;;;4934190;29;20024;-52
2022/07/17 08:58:18;;;;;;;0.40;0.38;;;;;;;;;;4934621;29;20051;-53
2022/07/17 09:00:45;;;;;;;0.90;0.45;;;;;;;;;;4933551;29;20096;-53
2022/07/17 09:03:12;;;;;;;0.50;0.30;;;;;;;;;;4934304;29;20038;-54
2022/07/17 09:05:40;;;;;;;1.00;0.50;;;;;;;;;;4936140;29;20163;-51
2022/07/17 09:08:08;;;;;;;1.30;0.57;;;;;;;;;;4937763;29;20024;-46
2022/07/17 09:10:43;;;;;;;0.80;0.45;;;;;;;;;;4937282;29;20044;-54
2022/07/17 09:13:16;;;;;;;0.52;0.30;;;;;;;;;;4937554;29;20032;-53
2022/07/17 09:15:43;;;;;;;0.60;0.30;;;;;;;;;;4936295;29;20417;-50
2022/07/17 09:18:10;;;;;;;0.85;0.47;;;;;;;;;;4937359;29;20033;-54
2022/07/17 09:20:40;;;;;;;1.33;0.45;;;;;;;;;;4937711;29;20041;-51
2022/07/17 09:23:08;;;;;;;0.80;0.68;;;;;;;;;;4936720;29;20024;-53
2022/07/17 09:25:41;;;;;;;1.73;0.40;;;;;;;;;;4937560;29;20038;-54
2022/07/17 09:28:09;;;;;;;0.50;0.40;;;;;;;;;;4936939;29;20050;-51
2022/07/17 09:30:37;;;;;;;0.30;0.30;;;;;;;;;;4936851;29;20042;-52
2022/07/17 09:33:08;;;;;;;0.50;0.22;;;;;;;;;;4936676;29;20047;-51
2022/07/17 09:35:35;;;;;;;0.43;0.30;;;;;;;;;;4936858;29;20047;-51
2022/07/17 09:38:02;;;;;;;0.38;0.30;;;;;;;;;;4937274;29;20079;-50
2022/07/17 09:43:14;;;;;;;1.05;0.50;;;;;;;;;;4936960;29;20127;-52
2022/07/17 09:45:41;;;;;;;0.30;0.30;;;;;;;;;;4936504;29;20023;-50
2022/07/17 09:48:09;;;;;;;0.70;0.43;;;;;;;;;;4937063;29;20087;-51
2022/07/17 09:50:37;;;;;;;0.60;0.40;;;;;;;;;;4936304;29;20032;-53
2022/07/17 09:53:05;;;;;;;0.82;0.43;;;;;;;;;;4936138;29;20452;-53
2022/07/17 09:55:34;;;;;;;0.30;0.30;;;;;;;;;;4937191;29;20389;-53
2022/07/17 09:58:03;;;;;;;0.22;0.22;;;;;;;;;;4936350;29;20031;-53
2022/07/17 10:00:30;;;;;;;0.82;0.35;;;;;;;;;;4934839;29;20035;-53
2022/07/17 10:02:58;;;;;;;1.45;0.40;;;;;;;;;;4936035;29;20159;-52
2022/07/17 10:05:25;;;;;;;0.40;0.20;;;;;;;;;;4936725;29;20155;-51
2022/07/17 10:07:52;;;;;;;0.50;0.30;;;;;;;;;;4936391;29;20090;-54
2022/07/17 10:10:19;;;;;;;0.40;0.30;;;;;;;;;;4936920;29;20036;-48
2022/07/17 10:12:48;;;;;;;1.27;0.35;;;;;;;;;;4936044;29;20039;-47
2022/07/17 10:15:16;;;;;;;0.32;0.22;;;;;;;;;;4936080;29;20035;-51
2022/07/17 10:17:43;;;;;;;0.30;0.30;;;;;;;;;;4935170;29;20071;-51
2022/07/17 10:20:11;;;;;;;0.70;0.30;;;;;;;;;;4936408;29;20043;-50
2022/07/17 10:22:47;;;;;;;0.30;0.30;;;;;;;;;;4935933;29;20456;-51
2022/07/17 10:25:16;;;;;;;1.02;0.40;;;;;;;;;;4936113;29;20040;-50
2022/07/17 10:27:50;;;;;;;0.30;0.30;;;;;;;;;;4936409;29;20035;-51
2022/07/17 10:30:28;;;;;;;0.93;0.30;;;;;;;;;;4935755;29;20055;-46
2022/07/17 10:32:59;;;;;;;0.50;0.32;;;;;;;;;;4936418;29;20039;-49
2022/07/17 10:35:27;;;;;;;0.40;0.30;;;;;;;;;;4935698;29;20031;-54
2022/07/17 10:37:54;;;;;;;1.25;0.40;;;;;;;;;;4935769;29;20027;-49
2022/07/17 10:40:32;;;;;;;0.70;0.30;;;;;;;;;;4935973;29;20039;-52
2022/07/17 10:43:02;;;;;;;1.13;0.40;;;;;;;;;;4935185;29;20482;-48
2022/07/17 10:45:33;;;;;;;0.32;0.20;;;;;;;;;;4934615;29;20058;-54
2022/07/17 10:48:00;;;;;;;0.30;0.30;;;;;;;;;;4935517;29;20090;-52
2022/07/17 10:50:27;;;;;;;0.30;0.30;;;;;;;;;;4936108;29;20064;-49
2022/07/17 10:53:06;;;;;;;0.88;0.40;;;;;;;;;;4935255;29;20032;-49
2022/07/17 10:55:33;;;;;;;0.60;0.30;;;;;;;;;;4936045;29;20032;-52
2022/07/17 10:58:00;;;;;;;0.40;0.30;;;;;;;;;;4935114;29;20024;-51
2022/07/17 11:00:28;;;;;;;0.32;0.20;;;;;;;;;;4935952;29;20516;-49
2022/07/17 11:02:55;;;;;;;0.70;0.40;;;;;;;;;;4935126;29;20031;-49
2022/07/17 11:05:22;;;;;;;0.73;0.20;;;;;;;;;;4935639;29;20046;-52
2022/07/17 11:07:50;;;;;;;1.05;0.40;;;;;;;;;;4934839;29;20031;-53
2022/07/17 11:10:17;;;;;;;0.55;0.35;;;;;;;;;;4935603;29;20028;-52
2022/07/17 11:12:44;;;;;;;0.40;0.20;;;;;;;;;;4935396;29;20086;-49
2022/07/17 11:15:11;;;;;;;0.85;0.30;;;;;;;;;;4934861;29;20036;-52
2022/07/17 11:17:39;;;;;;;0.28;0.28;;;;;;;;;;4935554;29;20031;-52
2022/07/17 11:20:06;;;;;;;0.73;0.35;;;;;;;;;;4934770;29;20031;-51
2022/07/17 11:22:33;;;;;;;0.43;0.30;;;;;;;;;;4935296;29;20118;-51
2022/07/17 11:25:00;;;;;;;0.40;0.30;;;;;;;;;;4934802;29;20709;-54
2022/07/17 11:27:28;;;;;;;0.40;0.30;;;;;;;;;;4917639;29;20398;-50
2022/07/17 11:29:57;;;;;;;0.40;0.20;;;;;;;;;;4935177;29;20032;-47
2022/07/17 11:32:25;;;;;;;0.93;0.40;;;;;;;;;;4933516;29;20113;-53
2022/07/17 11:34:52;;;;;;;0.75;0.30;;;;;;;;;;4934917;29;20091;-48
2022/07/17 11:37:21;;;;;;;0.55;0.30;;;;;;;;;;4935117;29;20031;-47
2022/07/17 11:39:50;;;;;;;1.02;0.40;;;;;;;;;;4934468;29;20070;-53
2022/07/17 11:42:18;;;;;;;1.38;0.52;;;;;;;;;;4934249;29;20031;-51
2022/07/17 11:44:49;;;;;;;1.02;0.40;;;;;;;;;;4934780;29;20502;-52
2022/07/17 11:47:21;;;;;;;0.30;0.30;;;;;;;;;;4934511;29;20478;-51
2022/07/17 11:49:48;;;;;;;0.40;0.40;;;;;;;;;;4934335;29;20051;-52
2022/07/17 11:52:20;;;;;;;0.30;0.20;;;;;;;;;;4934976;29;20028;-52
2022/07/17 11:54:52;;;;;;;1.23;0.50;;;;;;;;;;4934910;29;20105;-51
2022/07/17 11:57:19;;;;;;;0.40;0.20;;;;;;;;;;4934402;29;20637;-54
2022/07/17 11:59:47;;;;;;;0.60;0.38;;;;;;;;;;4934962;29;20103;-50
2022/07/17 12:02:15;;;;;;;0.38;0.35;;;;;;;;;;4934337;29;20032;-53
2022/07/17 12:04:51;;;;;;;0.38;0.30;;;;;;;;;;4933055;29;20106;-49
2022/07/17 12:07:18;;;;;;;0.60;0.38;;;;;;;;;;4934490;29;20055;-47
2022/07/17 12:09:45;;;;;;;0.40;0.40;;;;;;;;;;4934688;29;20027;-50
2022/07/17 12:12:28;;;;;;;3.92;0.50;;;;;;;;;;4933858;29;20055;-53
2022/07/17 12:15:00;;;;;;;0.57;0.35;;;;;;;;;;4916485;29;20090;-50
2022/07/17 12:17:38;;;;;;;0.77;0.30;;;;;;;;;;4933366;29;20482;-49
2022/07/17 12:20:06;;;;;;;0.50;0.40;;;;;;;;;;4934340;29;20047;-51
2022/07/17 12:22:53;;;;;;;1.90;0.38;;;;;;;;;;4929913;29;20541;-51
2022/07/17 12:25:27;;;;;;;0.20;0.20;;;;;;;;;;4924323;29;20036;-48
2022/07/17 12:27:55;;;;;;;0.40;0.30;;;;;;;;;;4925051;29;20070;-53
2022/07/17 12:30:22;;;;;;;0.40;0.30;;;;;;;;;;4910128;29;20438;-48
2022/07/17 12:32:49;;;;;;;3.05;0.40;;;;;;;;;;4914861;29;20040;-49
2022/07/17 12:35:16;;;;;;;0.30;0.25;;;;;;;;;;4915558;29;20025;-47
2022/07/17 12:37:44;;;;;;;0.43;0.30;;;;;;;;;;4914479;29;20509;-51
2022/07/17 12:40:11;;;;;;;0.22;0.20;;;;;;;;;;4916582;29;20111;-52
2022/07/17 12:42:37;;;;;;;1.27;0.30;;;;;;;;;;4919064;29;20111;-49
2022/07/17 12:45:05;;;;;;;0.32;0.30;;;;;;;;;;4918269;29;20048;-47
2022/07/17 12:47:32;;;;;;;0.45;0.30;;;;;;;;;;4918480;29;20115;-53
2022/07/17 12:49:59;;;;;;;0.65;0.28;;;;;;;;;;4911952;29;20371;-50
2022/07/17 12:52:26;;;;;;;0.43;0.22;;;;;;;;;;4918420;29;20040;-46
2022/07/17 12:54:53;;;;;;;0.98;0.32;;;;;;;;;;4919085;29;20032;-51
2022/07/17 12:57:20;;;;;;;0.47;0.30;;;;;;;;;;4918403;29;20062;-53
2022/07/17 12:59:47;;;;;;;0.60;0.30;;;;;;;;;;4918234;29;20032;-48
2022/07/17 13:02:14;;;;;;;0.20;0.20;;;;;;;;;;4918246;29;20116;-48
2022/07/17 13:04:41;;;;;;;0.70;0.40;;;;;;;;;;4933911;29;20553;-49
2022/07/17 13:07:08;;;;;;;0.30;0.30;;;;;;;;;;4936837;29;20032;-53
2022/07/17 13:09:36;;;;;;;0.57;0.40;;;;;;;;;;4936864;29;20047;-53
2022/07/17 13:12:03;;;;;;;0.43;0.20;;;;;;;;;;4937069;29;20060;-51
2022/07/17 13:14:30;;;;;;;0.20;0.20;;;;;;;;;;4937217;29;20038;-52
2022/07/17 13:16:57;;;;;;;1.30;0.30;;;;;;;;;;4936811;29;20116;-46
2022/07/17 13:19:24;;;;;;;2.05;0.40;;;;;;;;;;4936953;29;20059;-48
2022/07/17 13:21:51;;;;;;;0.30;0.20;;;;;;;;;;4936499;29;20039;-53
2022/07/17 13:24:18;;;;;;;0.20;0.20;;;;;;;;;;4937063;29;20043;-51
2022/07/17 13:26:45;;;;;;;0.25;0.25;;;;;;;;;;4933926;29;20107;-52
2022/07/17 13:29:12;;;;;;;0.38;0.30;;;;;;;;;;4936656;29;20134;-49
2022/07/17 13:31:40;;;;;;;1.00;0.30;;;;;;;;;;4936776;29;20047;-52
2022/07/17 13:34:07;;;;;;;2.30;0.40;;;;;;;;;;4936898;29;20107;-50
2022/07/17 13:36:34;;;;;;;0.30;0.30;;;;;;;;;;4927639;29;20474;-51
2022/07/17 13:39:01;;;;;;;1.52;0.20;;;;;;;;;;4917764;29;20478;-50
2022/07/17 13:41:28;;;;;;;0.30;0.20;;;;;;;;;;4917586;29;20047;-52
2022/07/17 13:43:55;;;;;;;0.22;0.20;;;;;;;;;;4917227;29;20131;-53
2022/07/17 13:46:22;;;;;;;0.40;0.30;;;;;;;;;;4917520;29;20063;-49
2022/07/17 13:48:49;;;;;;;0.50;0.30;;;;;;;;;;4920363;29;20897;-52
2022/07/17 13:51:16;;;;;;;0.75;0.30;;;;;;;;;;4936219;29;20107;-52
2022/07/17 13:53:43;;;;;;;0.68;0.30;;;;;;;;;;4927940;29;20557;-47
2022/07/17 13:56:10;;;;;;;1.67;0.30;;;;;;;;;;4926861;29;20477;-48
2022/07/17 13:58:37;;;;;;;0.82;0.30;;;;;;;;;;4925875;29;20084;-49
2022/07/17 14:01:05;;;;;;;0.70;0.30;;;;;;;;;;4924858;29;20043;-51
2022/07/17 14:03:32;;;;;;;0.73;0.40;;;;;;;;;;4926649;29;20050;-51
2022/07/17 14:05:59;;;;;;;1.10;0.20;;;;;;;;;;4925749;29;20028;-52
2022/07/17 14:08:26;;;;;;;2.28;0.30;;;;;;;;;;4925599;29;20474;-48
2022/07/17 14:10:53;;;;;;;0.88;0.38;;;;;;;;;;4926302;29;20036;-49
2022/07/17 14:13:20;;;;;;;1.75;0.38;;;;;;;;;;4925894;29;20047;-51
2022/07/17 14:15:47;;;;;;;0.43;0.20;;;;;;;;;;4925114;29;20031;-53
2022/07/17 14:18:14;;;;;;;1.95;0.40;;;;;;;;;;4926513;29;20036;-53
2022/07/17 14:20:41;;;;;;;1.35;0.40;;;;;;;;;;4919675;29;20486;-52
2022/07/17 14:23:08;;;;;;;4.95;0.57;;;;;;;;;;4924642;29;20047;-50
2022/07/17 14:25:35;;;;;;;6.05;0.50;;;;;;;;;;4923365;29;20035;-46
2022/07/17 14:28:02;;;;;;;5.40;0.38;;;;;;;;;;4923954;29;20035;-51
2022/07/17 14:30:29;;;;;;;1.63;0.47;;;;;;;;;;4926235;29;20036;-50
2022/07/17 14:32:56;;;;;;;3.38;0.40;;;;;;;;;;4925147;29;20043;-50
2022/07/17 14:35:23;;;;;;;3.30;0.45;;;;;;;;;;4927421;29;20368;-52
2022/07/17 14:37:50;;;;;;;2.20;0.65;;;;;;;;;;4933446;29;20043;-48
2022/07/17 14:40:19;;;;;;;2.92;0.40;;;;;;;;;;4934677;29;20031;-50
2022/07/17 14:42:46;;;;;;;7.03;0.65;;;;;;;;;;4940630;29;20477;-56
2022/07/17 14:45:13;;;;;;;3.50;0.43;;;;;;;;;;4935569;29;20044;-55